Time;durP1;ratioP1;P1;durP2;ratioP2;P2;SDS_P1;SDS_P2;PMS_P1;PMS_P2;Temp;Humidity;BMP_temperature;BMP_pressure;BME280_temperature;BME280_humidity;BME280_pressure;Samples;Min_cycle;Max_cycle;Signal;HPM_P1;HPM_P2
2021/08/17 00:01:08;;;;;;;16.65;9.77;;;21.30;68.90;;;;;;5055707;28;20418;-83
2021/08/17 00:03:33;;;;;;;15.95;10.65;;;21.30;69.00;;;;;;5056710;28;20021;-83
2021/08/17 00:06:01;;;;;;;15.85;10.43;;;21.30;69.30;;;;;;5055571;28;20367;-83
2021/08/17 00:08:27;;;;;;;15.65;10.60;;;21.30;69.40;;;;;;5037963;28;20029;-83
2021/08/17 00:10:53;;;;;;;18.50;11.02;;;21.30;69.50;;;;;;5055943;28;20103;-84
2021/08/17 00:13:20;;;;;;;15.60;9.55;;;21.20;69.60;;;;;;5055536;28;20483;-83
2021/08/17 00:15:46;;;;;;;16.10;10.50;;;21.20;69.60;;;;;;5038147;28;20115;-84
2021/08/17 00:18:12;;;;;;;17.48;10.68;;;21.10;69.80;;;;;;5037615;28;20087;-84
2021/08/17 00:20:38;;;;;;;16.30;10.60;;;21.10;69.80;;;;;;5055523;28;20428;-84
2021/08/17 00:23:06;;;;;;;18.80;10.88;;;21.10;70.00;;;;;;5036483;28;20068;-84
2021/08/17 00:25:33;;;;;;;15.38;10.50;;;21.00;70.30;;;;;;5037909;28;20021;-84
2021/08/17 00:27:58;;;;;;;18.42;11.02;;;21.00;70.30;;;;;;5037227;28;20365;-83
2021/08/17 00:30:24;;;;;;;14.73;9.90;;;21.00;70.50;;;;;;5037681;28;20033;-83
2021/08/17 00:32:50;;;;;;;17.00;11.15;;;21.00;70.40;;;;;;5055977;28;20108;-83
2021/08/17 00:35:16;;;;;;;17.58;11.00;;;20.90;70.50;;;;;;5037301;28;20057;-83
2021/08/17 00:37:41;;;;;;;15.93;10.38;;;20.90;70.60;;;;;;5054933;28;20036;-82
2021/08/17 00:40:08;;;;;;;15.10;10.32;;;20.90;70.70;;;;;;5037142;28;20025;-83
2021/08/17 00:42:52;;;;;;;13.95;9.85;;;20.90;70.80;;;;;;5036643;28;20495;-83
2021/08/17 00:45:24;;;;;;;16.48;10.00;;;20.90;71.70;;;;;;5037576;28;20047;-83
2021/08/17 00:47:55;;;;;;;13.85;8.88;;;20.90;70.70;;;;;;5036530;28;20028;-83
2021/08/17 00:50:21;;;;;;;;;;;20.80;70.60;;;;;;5037848;28;20036;-82
2021/08/17 00:52:48;;;;;;;14.60;8.13;;;20.80;72.10;;;;;;5037002;28;19956;-82
2021/08/17 00:55:14;;;;;;;16.23;9.48;;;20.80;70.50;;;;;;5054907;28;20029;-82
2021/08/17 00:57:44;;;;;;;14.68;8.90;;;20.80;70.60;;;;;;5054870;28;20032;-82
2021/08/17 01:00:10;;;;;;;13.93;9.63;;;20.80;70.70;;;;;;5036606;28;20082;-83
2021/08/17 01:02:37;;;;;;;15.90;9.27;;;20.80;70.80;;;;;;5036803;28;20475;-82
2021/08/17 01:05:05;;;;;;;15.52;9.25;;;20.80;70.80;;;;;;5036787;28;20029;-83
2021/08/17 01:07:31;;;;;;;13.55;8.98;;;20.80;70.80;;;;;;5054525;28;20040;-82
2021/08/17 01:09:56;;;;;;;11.90;8.43;;;20.80;70.70;;;;;;5036837;28;20116;-82
2021/08/17 01:12:22;;;;;;;15.45;8.95;;;20.80;70.60;;;;;;5036541;28;20033;-82
2021/08/17 01:14:48;;;;;;;14.75;9.35;;;20.70;70.70;;;;;;5036766;28;20063;-82
2021/08/17 01:17:16;;;;;;;12.23;8.68;;;20.70;71.00;;;;;;5035741;28;20032;-83
2021/08/17 01:19:41;;;;;;;12.85;8.95;;;20.70;70.90;;;;;;5053659;28;20057;-82
2021/08/17 01:22:07;;;;;;;13.27;8.75;;;20.70;70.90;;;;;;5054354;28;20032;-82
2021/08/17 01:24:33;;;;;;;14.60;9.20;;;20.70;71.00;;;;;;5036483;28;20530;-82
2021/08/17 01:26:58;;;;;;;14.07;9.18;;;20.60;70.90;;;;;;5054222;28;20029;-82
2021/08/17 01:29:24;;;;;;;12.98;8.55;;;20.60;71.00;;;;;;5035692;28;20452;-82
2021/08/17 01:31:51;;;;;;;13.10;8.43;;;20.60;70.90;;;;;;5054012;28;20100;-83
2021/08/17 01:34:17;;;;;;;13.77;9.00;;;20.60;70.90;;;;;;5035087;28;20028;-83
2021/08/17 01:36:43;;;;;;;15.05;9.38;;;20.60;70.90;;;;;;5054208;28;20040;-82
2021/08/17 01:39:09;;;;;;;12.52;8.52;;;20.60;71.00;;;;;;5035836;28;20033;-83
2021/08/17 01:41:35;;;;;;;10.90;7.72;;;20.60;70.90;;;;;;5036261;28;20547;-83
2021/08/17 01:44:09;;;;;;;12.13;7.85;;;20.60;70.80;;;;;;5053619;28;20060;-83
2021/08/17 01:46:35;;;;;;;11.20;7.22;;;20.60;70.80;;;;;;5035917;28;20055;-83
2021/08/17 01:49:00;;;;;;;13.80;9.13;;;20.60;70.80;;;;;;5035324;28;20029;-82
2021/08/17 01:51:26;;;;;;;13.38;8.80;;;20.50;71.10;;;;;;5036471;28;20120;-81
2021/08/17 01:53:52;;;;;;;13.93;9.20;;;20.50;71.20;;;;;;5035967;28;20029;-81
2021/08/17 01:56:18;;;;;;;12.30;8.68;;;20.50;71.10;;;;;;5053758;28;20108;-81
2021/08/17 01:58:44;;;;;;;11.68;7.55;;;20.50;71.00;;;;;;5036330;28;20132;-82
2021/08/17 02:01:12;;;;;;;12.98;8.27;;;20.50;71.00;;;;;;5054052;28;20032;-83
2021/08/17 02:03:38;;;;;;;13.27;7.90;;;20.50;71.10;;;;;;5035973;28;20025;-82
2021/08/17 02:06:05;;;;;;;11.35;7.60;;;20.50;71.00;;;;;;5035951;28;20025;-82
2021/08/17 02:08:32;;;;;;;10.68;7.65;;;20.40;71.10;;;;;;5053629;28;20090;-83
2021/08/17 02:10:58;;;;;;;12.88;8.93;;;20.40;71.20;;;;;;5053589;28;20104;-83
2021/08/17 02:13:24;;;;;;;10.85;7.60;;;20.40;71.20;;;;;;5035871;28;20021;-83
2021/08/17 02:15:51;;;;;;;13.40;7.78;;;20.40;71.00;;;;;;5035914;28;20064;-83
2021/08/17 02:18:17;;;;;;;11.07;7.85;;;20.40;71.00;;;;;;5053252;28;20048;-83
2021/08/17 02:20:44;;;;;;;18.42;10.02;;;20.40;71.10;;;;;;5036126;28;20021;-83
2021/08/17 02:23:10;;;;;;;16.50;10.05;;;20.30;71.40;;;;;;5035254;28;20035;-83
2021/08/17 02:25:36;;;;;;;17.35;10.13;;;20.30;71.50;;;;;;5035566;28;20524;-82
2021/08/17 02:28:02;;;;;;;15.18;10.07;;;20.30;71.70;;;;;;5035796;28;20128;-83
2021/08/17 02:30:28;;;;;;;14.23;9.00;;;20.20;71.70;;;;;;5035232;28;20037;-83
2021/08/17 02:32:54;;;;;;;13.63;9.25;;;20.20;71.90;;;;;;5053533;28;20393;-82
2021/08/17 02:35:20;;;;;;;12.63;7.93;;;20.10;72.10;;;;;;5052764;28;20120;-83
2021/08/17 02:37:45;;;;;;;12.00;8.63;;;20.10;72.20;;;;;;5053295;28;20033;-82
2021/08/17 02:40:12;;;;;;;10.77;7.75;;;20.00;72.20;;;;;;5035695;28;20115;-82
2021/08/17 02:42:37;;;;;;;12.35;8.40;;;20.00;72.20;;;;;;5034541;28;20021;-82
2021/08/17 02:45:04;;;;;;;9.48;7.38;;;19.90;72.20;;;;;;5036304;28;20459;-81
2021/08/17 02:47:30;;;;;;;14.45;7.68;;;19.90;72.40;;;;;;5038452;28;20091;-82
2021/08/17 02:49:56;;;;;;;10.18;7.25;;;19.90;72.40;;;;;;5038936;28;20067;-82
2021/08/17 02:52:22;;;;;;;11.20;6.75;;;19.90;72.30;;;;;;5039089;28;20025;-82
2021/08/17 02:54:50;;;;;;;10.85;7.60;;;19.90;72.40;;;;;;5057349;28;20026;-82
2021/08/17 02:57:18;;;;;;;11.32;7.30;;;19.90;72.50;;;;;;5057127;28;20111;-82
2021/08/17 02:59:43;;;;;;;8.93;6.50;;;19.90;72.40;;;;;;5057438;28;20113;-82
2021/08/17 03:02:09;;;;;;;8.23;6.28;;;19.90;72.30;;;;;;5057047;28;20104;-81
2021/08/17 03:04:36;;;;;;;11.52;8.25;;;19.90;72.30;;;;;;5056996;28;20025;-82
2021/08/17 03:07:06;;;;;;;9.85;6.95;;;19.90;72.70;;;;;;5057270;28;20088;-81
2021/08/17 03:09:32;;;;;;;11.00;6.95;;;20.00;72.60;;;;;;5022502;28;20071;-82
2021/08/17 03:11:58;;;;;;;7.93;5.75;;;20.00;72.40;;;;;;5039046;28;20052;-82
2021/08/17 03:14:24;;;;;;;10.18;6.97;;;20.00;72.20;;;;;;5038910;28;20036;-82
2021/08/17 03:16:50;;;;;;;7.63;5.47;;;20.00;72.30;;;;;;5056729;28;20025;-82
2021/08/17 03:19:15;;;;;;;8.50;6.00;;;20.10;72.10;;;;;;5056763;28;20041;-82
2021/08/17 03:21:41;;;;;;;8.98;5.93;;;20.20;71.90;;;;;;5038501;28;20029;-82
2021/08/17 03:24:07;;;;;;;8.90;6.05;;;20.20;71.70;;;;;;5038585;28;20028;-82
2021/08/17 03:26:33;;;;;;;7.93;5.53;;;20.20;71.60;;;;;;5038616;28;20467;-83
2021/08/17 03:28:59;;;;;;;9.05;6.25;;;20.20;72.20;;;;;;5056151;28;20040;-82
2021/08/17 03:31:25;;;;;;;8.27;5.85;;;20.30;71.60;;;;;;5055987;28;20041;-83
2021/08/17 03:33:51;;;;;;;8.15;5.55;;;20.30;71.40;;;;;;5038451;28;20037;-82
2021/08/17 03:36:18;;;;;;;8.52;5.63;;;20.40;71.30;;;;;;5038176;28;20033;-84
2021/08/17 03:38:44;;;;;;;8.75;6.00;;;20.40;71.20;;;;;;5056563;28;20118;-82
2021/08/17 03:41:10;;;;;;;9.88;6.43;;;20.40;71.10;;;;;;5038116;28;20037;-83
2021/08/17 03:43:37;;;;;;;8.65;6.20;;;20.50;71.10;;;;;;5038071;28;20098;-83
2021/08/17 03:46:04;;;;;;;9.13;6.00;;;20.60;71.10;;;;;;5038424;28;20057;-82
2021/08/17 03:48:30;;;;;;;10.73;6.47;;;20.60;70.90;;;;;;5038485;28;20356;-83
2021/08/17 03:50:56;;;;;;;8.57;6.40;;;20.70;70.90;;;;;;5040718;28;20028;-82
2021/08/17 03:53:22;;;;;;;10.05;5.57;;;20.80;70.80;;;;;;5067142;28;20060;-82
2021/08/17 03:55:47;;;;;;;8.52;6.07;;;20.80;70.70;;;;;;5038121;28;20043;-82
2021/08/17 03:58:13;;;;;;;8.18;6.07;;;20.80;70.50;;;;;;5057325;28;20025;-82
2021/08/17 04:00:39;;;;;;;9.13;6.57;;;20.90;70.40;;;;;;5075630;28;20466;-83
2021/08/17 04:03:05;;;;;;;7.93;5.75;;;21.00;70.10;;;;;;5075554;28;20084;-82
2021/08/17 04:05:30;;;;;;;9.50;6.68;;;21.00;69.90;;;;;;5057483;28;20119;-83
2021/08/17 04:07:56;;;;;;;8.90;6.57;;;21.10;69.80;;;;;;5057661;28;20036;-83
2021/08/17 04:10:22;;;;;;;9.10;6.30;;;21.10;69.60;;;;;;5075658;28;20612;-82
2021/08/17 04:12:48;;;;;;;9.75;6.95;;;21.10;69.40;;;;;;5075483;28;20051;-83
2021/08/17 04:15:14;;;;;;;8.88;6.55;;;21.20;69.40;;;;;;5075524;28;20356;-82
2021/08/17 04:17:40;;;;;;;8.32;5.97;;;21.20;69.40;;;;;;5075117;28;20082;-82
2021/08/17 04:20:09;;;;;;;9.60;6.38;;;21.30;69.40;;;;;;5075256;28;20551;-83
2021/08/17 04:22:35;;;;;;;8.90;6.22;;;21.30;69.30;;;;;;5048133;28;20108;-83
2021/08/17 04:25:01;;;;;;;8.55;6.00;;;21.40;69.30;;;;;;5037246;28;20357;-83
2021/08/17 04:27:27;;;;;;;8.77;5.90;;;21.50;69.20;;;;;;5037763;28;20037;-83
2021/08/17 04:29:53;;;;;;;7.38;5.93;;;21.60;69.10;;;;;;5055182;28;20028;-82
2021/08/17 04:32:19;;;;;;;8.30;5.50;;;21.60;68.90;;;;;;5054674;28;20021;-82
2021/08/17 04:34:44;;;;;;;10.20;6.85;;;21.70;68.70;;;;;;5036974;28;20033;-82
2021/08/17 04:37:10;;;;;;;9.88;6.85;;;21.70;68.50;;;;;;5054787;28;20044;-83
2021/08/17 04:39:37;;;;;;;8.90;6.13;;;21.80;68.30;;;;;;5054543;28;20095;-82
2021/08/17 04:42:05;;;;;;;9.00;6.53;;;21.90;68.20;;;;;;5036112;28;20041;-83
2021/08/17 04:44:30;;;;;;;8.13;6.00;;;21.90;68.10;;;;;;5036481;28;20033;-82
2021/08/17 04:46:56;;;;;;;8.88;5.85;;;22.00;67.90;;;;;;5036541;28;20029;-83
2021/08/17 04:49:22;;;;;;;10.00;7.18;;;22.10;67.70;;;;;;5036161;28;20068;-83
2021/08/17 04:51:50;;;;;;;9.43;6.40;;;22.20;67.50;;;;;;5054183;28;20032;-82
2021/08/17 04:54:16;;;;;;;10.70;6.28;;;22.30;67.40;;;;;;5054526;28;20176;-83
2021/08/17 04:56:42;;;;;;;9.40;6.47;;;22.40;67.30;;;;;;5054440;28;20084;-83
2021/08/17 04:59:08;;;;;;;8.63;6.22;;;22.50;67.20;;;;;;5036621;28;20029;-85
2021/08/17 05:01:33;;;;;;;8.60;5.50;;;22.60;67.10;;;;;;5054366;28;20021;-83
2021/08/17 05:04:04;;;;;;;8.30;6.03;;;22.70;67.10;;;;;;5036284;28;20025;-83
2021/08/17 05:06:30;;;;;;;;;;;22.70;66.90;;;;;;5037043;28;20070;-83
2021/08/17 05:08:59;;;;;;;9.00;6.80;;;22.80;66.80;;;;;;5054024;28;20291;-83
2021/08/17 05:11:24;;;;;;;9.80;6.85;;;22.90;66.60;;;;;;5054450;28;20021;-85
2021/08/17 05:13:54;;;;;;;8.85;6.53;;;23.00;66.40;;;;;;5036000;28;20179;-87
2021/08/17 05:16:20;;;;;;;10.50;7.18;;;23.10;66.30;;;;;;5036540;28;20056;-87
2021/08/17 05:18:48;;;;;;;8.35;6.35;;;23.20;66.20;;;;;;5035655;28;20448;-83
2021/08/17 05:21:14;;;;;;;9.65;6.43;;;23.20;65.90;;;;;;5034971;28;20116;-85
2021/08/17 05:23:40;;;;;;;10.55;6.50;;;23.30;65.80;;;;;;5035039;28;20493;-85
2021/08/17 05:26:06;;;;;;;8.95;6.65;;;23.40;65.60;;;;;;5035459;28;20040;-85
2021/08/17 05:28:35;;;;;;;9.32;6.35;;;23.50;65.40;;;;;;5053872;28;20108;-86
2021/08/17 05:31:04;;;;;;;8.85;5.95;;;23.60;65.20;;;;;;5053926;28;20514;-87
2021/08/17 05:33:30;;;;;;;9.90;6.18;;;23.70;65.00;;;;;;5054139;28;20538;-83
2021/08/17 05:35:59;;;;;;;11.05;5.93;;;23.80;64.70;;;;;;5053771;28;20025;-87
2021/08/17 05:38:24;;;;;;;9.15;6.28;;;24.00;64.40;;;;;;5054392;28;20059;-83
2021/08/17 05:40:50;;;;;;;10.85;6.20;;;24.10;64.20;;;;;;5053998;28;20029;-84
2021/08/17 05:43:16;;;;;;;7.50;6.05;;;24.20;63.70;;;;;;5035505;28;20432;-84
2021/08/17 05:46:13;;;;;;;;;;;;;;;;;;;;;
2021/08/17 05:48:40;;;;;;;7.95;5.90;;;24.40;62.80;;;;;;5040370;28;20047;-86
2021/08/17 05:51:07;;;;;;;8.90;5.88;;;24.60;62.30;;;;;;5019666;28;20037;-87
2021/08/17 05:53:33;;;;;;;10.75;6.47;;;24.70;61.60;;;;;;5052959;28;20025;-88
2021/08/17 05:55:59;;;;;;;9.32;6.45;;;24.80;60.90;;;;;;5035843;28;20075;-91
2021/08/17 05:58:24;;;;;;;8.63;5.93;;;24.90;60.20;;;;;;5056050;28;20025;-87
2021/08/17 06:00:50;;;;;;;9.82;6.18;;;25.10;59.80;;;;;;5052910;28;20456;-86
2021/08/17 06:03:16;;;;;;;10.40;6.43;;;25.20;59.20;;;;;;5052959;28;20456;-86
2021/08/17 06:05:41;;;;;;;8.85;6.70;;;25.30;58.70;;;;;;5053990;28;20017;-87
2021/08/17 06:08:07;;;;;;;9.27;6.50;;;25.40;57.90;;;;;;5036060;28;20124;-89
2021/08/17 06:10:33;;;;;;;9.77;6.75;;;25.60;57.40;;;;;;5036340;28;20035;-87
2021/08/17 06:12:59;;;;;;;9.15;5.82;;;25.70;57.00;;;;;;5055667;28;20475;-88
2021/08/17 06:15:27;;;;;;;7.80;5.78;;;25.80;56.70;;;;;;5038469;28;20025;-87
2021/08/17 06:17:53;;;;;;;8.98;5.43;;;26.00;56.60;;;;;;5038423;28;20128;-87
2021/08/17 06:20:18;;;;;;;13.63;5.85;;;26.10;55.20;;;;;;5036864;28;20456;-86
2021/08/17 06:22:44;;;;;;;8.60;5.53;;;26.20;54.30;;;;;;5037222;28;20053;-87
2021/08/17 06:25:10;;;;;;;8.65;5.72;;;26.30;53.40;;;;;;5037361;28;20120;-88
2021/08/17 06:27:37;;;;;;;10.05;4.75;;;26.40;52.90;;;;;;5037792;28;20029;-86
2021/08/17 06:30:05;;;;;;;8.60;5.22;;;26.60;53.00;;;;;;5036102;28;20041;-88
2021/08/17 06:32:31;;;;;;;9.30;5.20;;;26.70;52.40;;;;;;5036529;28;20037;-87
2021/08/17 06:34:56;;;;;;;5.82;4.60;;;26.80;51.30;;;;;;5037320;28;20033;-88
2021/08/17 06:37:22;;;;;;;8.10;5.10;;;26.90;51.30;;;;;;5037074;28;20056;-87
2021/08/17 06:39:48;;;;;;;7.43;5.05;;;27.00;50.80;;;;;;5036319;28;20357;-88
2021/08/17 06:42:14;;;;;;;9.75;4.90;;;27.10;50.30;;;;;;5037502;28;20025;-87
2021/08/17 06:44:39;;;;;;;8.05;5.10;;;27.20;50.00;;;;;;5036616;28;20029;-86
2021/08/17 06:47:05;;;;;;;8.13;4.85;;;27.30;49.80;;;;;;5036161;28;20040;-89
2021/08/17 06:49:31;;;;;;;6.88;4.85;;;27.40;49.90;;;;;;5036026;28;20140;-87
2021/08/17 06:51:56;;;;;;;7.55;4.63;;;27.50;49.40;;;;;;5037439;28;20065;-87
2021/08/17 06:54:22;;;;;;;8.18;4.30;;;27.60;49.30;;;;;;5036931;28;20510;-87
2021/08/17 06:56:47;;;;;;;7.75;4.80;;;27.70;49.30;;;;;;5035843;28;20109;-86
2021/08/17 06:59:13;;;;;;;7.25;4.70;;;27.80;48.70;;;;;;5036573;28;20079;-88
2021/08/17 07:01:41;;;;;;;8.32;4.30;;;27.90;48.20;;;;;;5037366;28;20032;-88
2021/08/17 07:04:07;;;;;;;6.78;4.43;;;28.00;48.50;;;;;;5034782;28;20472;-88
2021/08/17 07:06:38;;;;;;;7.72;4.50;;;28.10;48.30;;;;;;5035381;28;20031;-89
2021/08/17 07:09:04;;;;;;;7.68;4.50;;;28.30;48.00;;;;;;5035595;28;20464;-88
2021/08/17 07:11:34;;;;;;;6.82;4.22;;;28.40;47.40;;;;;;5036454;28;20033;-87
2021/08/17 07:13:59;;;;;;;6.25;4.40;;;28.50;47.30;;;;;;5035399;28;20032;-87
2021/08/17 07:16:25;;;;;;;7.50;4.60;;;28.70;47.00;;;;;;5035096;28;20025;-85
2021/08/17 07:18:50;;;;;;;6.75;4.47;;;28.80;45.50;;;;;;5035030;28;20091;-85
2021/08/17 07:21:16;;;;;;;7.85;4.20;;;28.90;45.50;;;;;;5034994;28;20112;-86
2021/08/17 07:23:42;;;;;;;6.55;4.20;;;29.00;45.30;;;;;;5036016;28;20041;-86
2021/08/17 07:26:07;;;;;;;5.65;4.07;;;29.10;45.10;;;;;;5036241;28;20017;-86
2021/08/17 07:28:33;;;;;;;7.70;4.47;;;29.10;45.30;;;;;;5035988;28;20044;-85
2021/08/17 07:30:59;;;;;;;10.98;4.30;;;29.20;44.60;;;;;;5036138;28;20034;-85
2021/08/17 07:33:25;;;;;;;5.93;4.13;;;29.30;44.00;;;;;;5036212;28;20380;-86
2021/08/17 07:35:50;;;;;;;5.75;3.97;;;29.30;44.00;;;;;;5036378;28;20384;-88
2021/08/17 07:38:16;;;;;;;6.43;4.45;;;29.40;44.20;;;;;;5034871;28;20033;-83
2021/08/17 07:40:42;;;;;;;6.00;4.10;;;29.40;43.60;;;;;;5035718;28;20038;-88
2021/08/17 07:43:08;;;;;;;6.55;4.80;;;29.50;43.90;;;;;;5034550;28;20029;-88
2021/08/17 07:45:34;;;;;;;8.77;4.57;;;29.50;43.80;;;;;;5034625;28;20122;-85
2021/08/17 07:47:59;;;;;;;7.47;4.70;;;29.60;43.70;;;;;;5034684;28;20486;-87
2021/08/17 07:50:25;;;;;;;13.02;9.55;;;29.70;43.90;;;;;;5035159;28;20484;-88
2021/08/17 07:52:51;;;;;;;11.05;9.43;;;29.80;43.60;;;;;;5035223;28;20113;-85
2021/08/17 07:55:17;;;;;;;8.98;5.78;;;30.00;43.60;;;;;;5036208;28;20452;-86
2021/08/17 07:57:43;;;;;;;9.05;5.15;;;30.00;42.60;;;;;;5034943;28;20075;-85
2021/08/17 08:00:13;;;;;;;5.78;4.28;;;30.20;42.70;;;;;;5035854;28;20036;-85
2021/08/17 08:02:38;;;;;;;6.82;4.47;;;30.40;42.60;;;;;;5034909;28;20044;-86
2021/08/17 08:05:06;;;;;;;5.70;4.07;;;30.70;43.20;;;;;;5035770;28;20026;-84
2021/08/17 08:07:32;;;;;;;5.85;4.05;;;31.10;42.60;;;;;;5034618;28;20037;-85
2021/08/17 08:09:58;;;;;;;5.80;4.15;;;31.40;42.40;;;;;;5034647;28;20030;-85
2021/08/17 08:12:24;;;;;;;8.52;4.22;;;31.80;41.60;;;;;;5034275;28;20037;-86
2021/08/17 08:14:52;;;;;;;11.02;6.47;;;32.10;41.80;;;;;;5033834;28;20591;-85
2021/08/17 08:17:18;;;;;;;6.95;5.65;;;32.40;41.40;;;;;;5034509;28;20036;-85
2021/08/17 08:19:44;;;;;;;5.65;4.35;;;32.70;41.20;;;;;;5034092;28;20053;-85
2021/08/17 08:22:09;;;;;;;7.00;4.63;;;33.00;40.60;;;;;;5035084;28;20025;-86
2021/08/17 08:24:38;;;;;;;7.28;4.60;;;33.20;39.60;;;;;;5030968;28;20057;-85
2021/08/17 08:27:05;;;;;;;8.27;4.95;;;33.40;39.90;;;;;;5026898;28;20029;-84
2021/08/17 08:29:31;;;;;;;6.88;4.47;;;33.60;38.60;;;;;;5029092;28;20045;-87
2021/08/17 08:31:57;;;;;;;11.73;4.18;;;33.70;38.90;;;;;;5026570;28;20025;-86
2021/08/17 08:34:23;;;;;;;5.40;4.30;;;33.80;39.20;;;;;;5033274;28;20033;-86
2021/08/17 08:36:50;;;;;;;8.38;4.50;;;34.00;38.00;;;;;;5032275;28;20022;-85
2021/08/17 08:39:16;;;;;;;5.05;4.30;;;34.10;37.80;;;;;;5031829;28;20112;-86
2021/08/17 08:41:45;;;;;;;5.93;4.30;;;34.20;37.70;;;;;;5031943;28;20079;-84
2021/08/17 08:44:12;;;;;;;7.65;4.53;;;34.30;37.60;;;;;;5029725;28;20024;-86
2021/08/17 08:46:39;;;;;;;7.72;4.63;;;34.40;37.40;;;;;;5032029;28;20033;-86
2021/08/17 08:49:06;;;;;;;8.20;5.00;;;34.50;37.60;;;;;;5030212;28;20116;-87
2021/08/17 08:51:33;;;;;;;7.82;4.90;;;34.70;37.20;;;;;;5033477;28;20065;-86
2021/08/17 08:54:01;;;;;;;7.60;5.10;;;34.90;36.60;;;;;;5032554;28;20026;-86
2021/08/17 08:56:31;;;;;;;6.33;4.83;;;35.00;36.50;;;;;;5032209;28;20029;-86
2021/08/17 08:58:57;;;;;;;6.35;4.70;;;35.00;36.40;;;;;;5027439;28;20263;-86
2021/08/17 09:01:24;;;;;;;10.90;5.88;;;35.10;36.20;;;;;;5032332;28;20080;-85
2021/08/17 09:03:52;;;;;;;9.57;5.55;;;35.20;36.20;;;;;;5030261;28;20056;-83
2021/08/17 09:06:23;;;;;;;8.05;5.40;;;35.20;36.00;;;;;;5033427;28;20036;-85
2021/08/17 09:09:07;;;;;;;8.02;6.10;;;35.20;36.40;;;;;;5022947;28;20472;-88
2021/08/17 09:11:33;;;;;;;6.75;5.60;;;35.40;36.40;;;;;;5033993;28;20092;-85
2021/08/17 09:14:20;;;;;;;7.32;5.45;;;35.50;36.60;;;;;;5034482;28;20099;-88
2021/08/17 09:16:53;;;;;;;6.03;4.60;;;35.70;35.60;;;;;;5035721;28;20100;-84
2021/08/17 09:19:23;;;;;;;8.07;5.10;;;35.80;36.70;;;;;;5045689;28;20049;-86
2021/08/17 09:21:50;;;;;;;6.63;4.85;;;36.20;35.80;;;;;;5035957;28;20028;-88
2021/08/17 09:24:27;;;;;;;9.02;5.30;;;36.10;36.00;;;;;;5053315;28;20021;-85
2021/08/17 09:26:59;;;;;;;7.05;4.60;;;36.10;36.00;;;;;;5033648;28;20033;-87
2021/08/17 09:29:34;;;;;;;7.80;5.00;;;36.20;36.30;;;;;;5035947;28;20131;-87
2021/08/17 09:32:18;;;;;;;9.90;5.72;;;36.30;35.40;;;;;;5020639;28;20028;-86
2021/08/17 09:34:46;;;;;;;7.22;5.40;;;36.40;35.00;;;;;;5034714;28;20049;-88
2021/08/17 09:37:12;;;;;;;7.95;5.53;;;36.40;35.50;;;;;;5035980;28;20368;-88
2021/08/17 09:39:46;;;;;;;7.78;4.80;;;36.40;35.70;;;;;;5036169;28;20436;-88
2021/08/17 09:42:16;;;;;;;7.72;5.40;;;36.50;35.80;;;;;;5054044;28;20072;-88
2021/08/17 09:44:44;;;;;;;7.68;5.53;;;36.70;35.40;;;;;;5035988;28;20078;-88
2021/08/17 09:47:10;;;;;;;5.75;5.03;;;36.90;35.50;;;;;;5054297;28;20044;-90
2021/08/17 09:49:36;;;;;;;7.93;5.45;;;37.10;35.60;;;;;;5035970;28;20079;-89
2021/08/17 09:52:12;;;;;;;6.32;4.82;;;37.30;35.10;;;;;;5055041;28;20028;-89
2021/08/17 09:54:43;;;;;;;7.18;5.60;;;37.50;34.10;;;;;;5043455;28;20056;-89
2021/08/17 09:57:12;;;;;;;5.82;4.85;;;37.60;34.70;;;;;;5036537;28;20040;-88
2021/08/17 09:59:41;;;;;;;5.72;5.05;;;37.70;34.30;;;;;;5036584;28;20032;-90
2021/08/17 10:02:07;;;;;;;;;;;37.70;34.30;;;;;;5020848;28;20491;-89
2021/08/17 10:04:51;;;;;;;7.25;4.95;;;37.50;33.30;;;;;;5037608;28;19912;-90
2021/08/17 10:07:18;;;;;;;5.88;4.32;;;37.60;33.40;;;;;;5036511;28;20108;-89
2021/08/17 10:09:47;;;;;;;12.48;9.25;;;37.50;34.50;;;;;;5054862;28;20107;-90
2021/08/17 10:12:13;;;;;;;7.50;5.20;;;37.80;33.90;;;;;;5035700;28;20025;-89
2021/08/17 10:18:02;;;;;;;6.75;4.97;;;38.10;33.70;;;;;;5053627;28;20086;-86
2021/08/17 10:20:32;;;;;;;7.38;5.03;;;38.40;33.60;;;;;;5035585;28;20057;-91
2021/08/17 10:22:58;;;;;;;8.73;6.28;;;38.50;33.30;;;;;;5035413;28;20082;-91
2021/08/17 10:25:41;;;;;;;7.35;5.88;;;38.60;33.40;;;;;;5034813;28;20049;-88
2021/08/17 10:28:23;;;;;;;6.20;4.75;;;38.70;33.80;;;;;;5053702;28;20059;-88
2021/08/17 10:34:08;;;;;;;10.63;5.20;;;39.20;32.10;;;;;;5054440;28;20071;-91
2021/08/17 10:36:45;;;;;;;7.47;4.90;;;38.80;32.40;;;;;;5054056;28;20032;-88
2021/08/17 10:39:18;;;;;;;6.90;4.75;;;38.70;32.30;;;;;;5053591;28;20040;-90
2021/08/17 10:41:54;;;;;;;5.13;4.50;;;38.80;32.30;;;;;;5053611;28;20040;-86
2021/08/17 10:44:37;;;;;;;6.45;4.70;;;38.90;32.70;;;;;;5054441;28;20032;-87
2021/08/17 10:47:06;;;;;;;7.63;4.30;;;39.10;32.50;;;;;;5035829;28;20435;-87
2021/08/17 10:49:53;;;;;;;6.38;4.90;;;39.30;32.70;;;;;;5053271;28;20040;-86
2021/08/17 10:52:41;;;;;;;7.63;5.47;;;39.40;32.00;;;;;;5053070;28;20472;-87
2021/08/17 10:55:37;;;;;;;7.32;5.05;;;39.50;31.70;;;;;;5035879;28;20090;-86
2021/08/17 10:58:08;;;;;;;9.23;5.38;;;39.50;31.50;;;;;;4994678;28;20040;-86
2021/08/17 11:00:45;;;;;;;7.30;4.82;;;39.40;31.60;;;;;;5053549;28;20025;-87
2021/08/17 11:03:14;;;;;;;7.22;5.10;;;39.60;31.30;;;;;;5035404;28;20513;-87
2021/08/17 11:05:55;;;;;;;6.15;4.40;;;39.60;31.70;;;;;;5035984;28;20032;-86
2021/08/17 11:08:37;;;;;;;11.55;6.93;;;39.70;31.20;;;;;;5056990;28;20033;-87
2021/08/17 11:11:18;;;;;;;8.02;5.25;;;40.00;31.60;;;;;;5056985;28;20106;-87
2021/08/17 11:14:09;;;;;;;6.35;4.82;;;40.30;31.20;;;;;;5038870;28;20033;-88
2021/08/17 11:16:40;;;;;;;6.43;4.40;;;40.20;30.20;;;;;;5057283;28;20079;-86
2021/08/17 11:19:06;;;;;;;5.82;4.30;;;40.20;30.80;;;;;;5056746;28;20041;-86
2021/08/17 11:21:38;;;;;;;5.60;4.40;;;40.30;30.80;;;;;;5056369;28;20033;-86
2021/08/17 11:24:07;;;;;;;4.93;4.00;;;40.50;31.10;;;;;;5038606;28;20120;-86
2021/08/17 11:26:33;;;;;;;6.32;4.80;;;40.70;30.80;;;;;;5038318;28;20032;-87
2021/08/17 11:28:59;;;;;;;5.80;4.30;;;40.70;30.40;;;;;;5038564;28;20036;-86
2021/08/17 11:31:24;;;;;;;7.38;4.60;;;40.60;30.80;;;;;;5056936;28;20097;-86
2021/08/17 11:34:10;;;;;;;7.63;4.57;;;40.60;30.40;;;;;;5038340;28;20025;-85
2021/08/17 11:36:35;;;;;;;7.03;4.32;;;40.50;30.20;;;;;;5039509;28;20029;-85
2021/08/17 11:39:26;;;;;;;7.68;4.30;;;40.30;30.60;;;;;;5038577;28;20052;-86
2021/08/17 11:41:52;;;;;;;5.43;4.10;;;40.30;30.60;;;;;;5038467;28;20052;-88
2021/08/17 11:44:18;;;;;;;5.38;4.20;;;40.40;31.20;;;;;;5056501;28;20028;-86
2021/08/17 11:46:48;;;;;;;4.95;4.25;;;40.60;31.30;;;;;;5057690;28;20426;-89
2021/08/17 11:49:25;;;;;;;5.95;4.53;;;41.10;30.60;;;;;;5039445;28;20036;-89
2021/08/17 11:52:01;;;;;;;5.50;4.40;;;41.20;30.10;;;;;;5040894;28;20048;-91
2021/08/17 11:55:18;;;;;;;6.15;4.28;;;41.20;30.50;;;;;;5038628;28;20029;-91
2021/08/17 11:57:54;;;;;;;5.47;4.30;;;41.40;30.00;;;;;;5039392;28;20029;-90
2021/08/17 12:00:25;;;;;;;4.40;3.70;;;41.40;30.30;;;;;;5056823;28;20017;-90
2021/08/17 12:03:27;;;;;;;5.80;3.90;;;41.50;30.40;;;;;;5056758;28;20021;-90
2021/08/17 12:05:55;;;;;;;5.35;4.00;;;41.50;30.50;;;;;;5038604;28;20079;-91
2021/08/17 12:08:33;;;;;;;6.22;4.50;;;41.60;30.60;;;;;;5056210;28;20025;-89
2021/08/17 12:11:02;;;;;;;6.07;4.40;;;41.80;29.60;;;;;;5039453;28;20033;-91
2021/08/17 12:13:38;;;;;;;8.57;4.00;;;41.60;29.90;;;;;;5038473;28;20057;-87
2021/08/17 12:16:13;;;;;;;6.53;4.15;;;41.60;30.90;;;;;;5056224;28;20049;-88
2021/08/17 12:18:39;;;;;;;4.95;4.43;;;41.80;30.00;;;;;;5056154;28;20053;-86
2021/08/17 12:21:22;;;;;;;5.97;4.50;;;41.90;29.80;;;;;;5056731;28;20048;-85
2021/08/17 12:23:48;;;;;;;6.63;4.80;;;41.70;29.90;;;;;;5038166;28;20468;-84
2021/08/17 12:26:32;;;;;;;5.90;4.97;;;41.50;30.00;;;;;;5040791;28;20025;-85
2021/08/17 12:29:10;;;;;;;5.20;4.28;;;41.40;29.50;;;;;;5038649;28;20361;-85
2021/08/17 12:31:37;;;;;;;7.15;4.28;;;41.30;30.00;;;;;;5038338;28;20119;-85
2021/08/17 12:34:07;;;;;;;5.55;3.78;;;41.40;30.00;;;;;;5056418;28;20029;-85
2021/08/17 12:36:42;;;;;;;7.25;5.10;;;41.50;29.90;;;;;;5039684;28;20025;-85
2021/08/17 12:39:14;;;;;;;5.93;4.40;;;41.50;29.80;;;;;;5037944;28;20029;-84
2021/08/17 12:41:53;;;;;;;6.07;4.15;;;41.50;29.80;;;;;;5038559;28;20597;-85
2021/08/17 12:44:24;;;;;;;5.70;4.55;;;41.60;29.50;;;;;;5038864;28;20021;-84
2021/08/17 12:47:02;;;;;;;6.03;4.40;;;41.50;29.60;;;;;;5038188;28;20379;-84
2021/08/17 12:49:48;;;;;;;6.93;4.50;;;41.60;29.70;;;;;;5037212;28;20029;-83
2021/08/17 12:52:25;;;;;;;6.43;4.57;;;41.70;29.40;;;;;;5037742;28;20041;-85
2021/08/17 12:54:56;;;;;;;6.15;4.53;;;41.50;29.60;;;;;;5037350;28;20078;-84
2021/08/17 12:57:24;;;;;;;9.93;5.25;;;41.40;29.70;;;;;;5037385;28;20098;-83
2021/08/17 12:59:50;;;;;;;9.90;4.80;;;41.20;29.80;;;;;;5037359;28;20451;-84